sensor_id;sensor_type;location;lat;lon;timestamp;P1;durP1;ratioP1;P2;durP2;ratioP2
3959;SDS011;1994;48.640;8.894;2023-07-29T00:02:08;2.60;;;1.80;;
3959;SDS011;1994;48.640;8.894;2023-07-29T00:04:34;2.13;;;1.97;;
3959;SDS011;1994;48.640;8.894;2023-07-29T00:06:59;5.13;;;2.23;;
3959;SDS011;1994;48.640;8.894;2023-07-29T00:09:25;2.30;;;2.00;;
3959;SDS011;1994;48.640;8.894;2023-07-29T00:11:51;2.50;;;2.10;;
3959;SDS011;1994;48.640;8.894;2023-07-29T00:14:17;3.20;;;2.23;;
3959;SDS011;1994;48.640;8.894;2023-07-29T00:16:42;2.47;;;2.27;;
3959;SDS011;1994;48.640;8.894;2023-07-29T00:19:08;7.23;;;2.10;;
3959;SDS011;1994;48.640;8.894;2023-07-29T00:21:34;4.30;;;2.20;;
3959;SDS011;1994;48.640;8.894;2023-07-29T00:24:00;2.23;;;2.03;;
3959;SDS011;1994;48.640;8.894;2023-07-29T00:26:26;3.00;;;1.80;;
3959;SDS011;1994;48.640;8.894;2023-07-29T00:28:54;3.30;;;1.93;;
3959;SDS011;1994;48.640;8.894;2023-07-29T00:31:21;5.00;;;2.67;;
3959;SDS011;1994;48.640;8.894;2023-07-29T00:33:47;2.93;;;2.27;;
3959;SDS011;1994;48.640;8.894;2023-07-29T00:36:12;2.90;;;1.90;;
3959;SDS011;1994;48.640;8.894;2023-07-29T00:38:38;6.47;;;2.50;;
3959;SDS011;1994;48.640;8.894;2023-07-29T00:41:04;1.83;;;1.73;;
3959;SDS011;1994;48.640;8.894;2023-07-29T00:43:30;2.83;;;2.30;;
3959;SDS011;1994;48.640;8.894;2023-07-29T00:45:56;2.13;;;2.03;;
3959;SDS011;1994;48.640;8.894;2023-07-29T00:48:22;2.30;;;2.20;;
3959;SDS011;1994;48.640;8.894;2023-07-29T00:50:50;2.33;;;2.13;;
3959;SDS011;1994;48.640;8.894;2023-07-29T00:53:16;2.30;;;2.20;;
3959;SDS011;1994;48.640;8.894;2023-07-29T00:55:42;2.50;;;2.30;;
3959;SDS011;1994;48.640;8.894;2023-07-29T00:58:09;9.33;;;2.57;;
3959;SDS011;1994;48.640;8.894;2023-07-29T01:00:35;3.87;;;2.70;;
3959;SDS011;1994;48.640;8.894;2023-07-29T01:03:01;2.67;;;2.00;;
3959;SDS011;1994;48.640;8.894;2023-07-29T01:05:30;15.17;;;2.57;;
3959;SDS011;1994;48.640;8.894;2023-07-29T01:08:17;2.90;;;1.97;;
3959;SDS011;1994;48.640;8.894;2023-07-29T01:11:01;7.03;;;2.60;;
3959;SDS011;1994;48.640;8.894;2023-07-29T01:13:56;3.53;;;3.27;;
3959;SDS011;1994;48.640;8.894;2023-07-29T01:16:31;4.60;;;2.43;;
3959;SDS011;1994;48.640;8.894;2023-07-29T01:19:08;4.60;;;2.50;;
3959;SDS011;1994;48.640;8.894;2023-07-29T01:22:07;6.23;;;2.60;;
3959;SDS011;1994;48.640;8.894;2023-07-29T01:24:35;3.17;;;2.87;;
3959;SDS011;1994;48.640;8.894;2023-07-29T01:27:00;2.20;;;2.00;;
3959;SDS011;1994;48.640;8.894;2023-07-29T01:29:28;4.60;;;2.30;;
3959;SDS011;1994;48.640;8.894;2023-07-29T01:31:55;7.00;;;2.20;;
3959;SDS011;1994;48.640;8.894;2023-07-29T01:34:27;2.30;;;2.17;;
3959;SDS011;1994;48.640;8.894;2023-07-29T01:37:32;2.70;;;1.73;;
3959;SDS011;1994;48.640;8.894;2023-07-29T01:39:59;2.20;;;2.10;;
3959;SDS011;1994;48.640;8.894;2023-07-29T01:42:26;6.43;;;2.00;;
3959;SDS011;1994;48.640;8.894;2023-07-29T01:44:52;3.67;;;2.30;;
3959;SDS011;1994;48.640;8.894;2023-07-29T01:47:18;4.20;;;2.07;;
3959;SDS011;1994;48.640;8.894;2023-07-29T01:49:45;3.30;;;2.27;;
3959;SDS011;1994;48.640;8.894;2023-07-29T01:52:11;2.90;;;2.10;;
3959;SDS011;1994;48.640;8.894;2023-07-29T01:54:36;4.73;;;2.20;;
3959;SDS011;1994;48.640;8.894;2023-07-29T01:57:02;3.97;;;2.40;;
3959;SDS011;1994;48.640;8.894;2023-07-29T01:59:28;2.37;;;2.00;;
3959;SDS011;1994;48.640;8.894;2023-07-29T02:01:54;3.37;;;2.00;;
3959;SDS011;1994;48.640;8.894;2023-07-29T02:04:19;4.93;;;2.50;;
3959;SDS011;1994;48.640;8.894;2023-07-29T02:06:45;3.23;;;2.03;;
3959;SDS011;1994;48.640;8.894;2023-07-29T02:09:11;4.80;;;1.80;;
3959;SDS011;1994;48.640;8.894;2023-07-29T02:11:36;3.30;;;1.90;;
3959;SDS011;1994;48.640;8.894;2023-07-29T02:14:02;1.90;;;1.80;;
3959;SDS011;1994;48.640;8.894;2023-07-29T02:16:28;2.63;;;2.00;;
3959;SDS011;1994;48.640;8.894;2023-07-29T02:18:54;3.37;;;1.93;;
3959;SDS011;1994;48.640;8.894;2023-07-29T02:21:19;3.07;;;2.30;;
3959;SDS011;1994;48.640;8.894;2023-07-29T02:23:45;2.50;;;2.30;;
3959;SDS011;1994;48.640;8.894;2023-07-29T02:26:11;2.10;;;1.90;;
3959;SDS011;1994;48.640;8.894;2023-07-29T02:28:36;2.33;;;2.13;;
3959;SDS011;1994;48.640;8.894;2023-07-29T02:31:22;3.70;;;2.03;;
3959;SDS011;1994;48.640;8.894;2023-07-29T02:33:49;3.57;;;2.50;;
3959;SDS011;1994;48.640;8.894;2023-07-29T02:36:16;4.13;;;2.37;;
3959;SDS011;1994;48.640;8.894;2023-07-29T02:38:42;2.33;;;2.10;;
3959;SDS011;1994;48.640;8.894;2023-07-29T02:41:09;2.33;;;2.23;;
3959;SDS011;1994;48.640;8.894;2023-07-29T02:43:37;3.43;;;2.00;;
3959;SDS011;1994;48.640;8.894;2023-07-29T02:46:03;3.80;;;2.20;;
3959;SDS011;1994;48.640;8.894;2023-07-29T02:48:29;5.47;;;2.77;;
3959;SDS011;1994;48.640;8.894;2023-07-29T02:50:55;3.40;;;3.10;;
3959;SDS011;1994;48.640;8.894;2023-07-29T02:53:21;6.70;;;2.40;;
3959;SDS011;1994;48.640;8.894;2023-07-29T02:55:48;2.23;;;1.87;;
3959;SDS011;1994;48.640;8.894;2023-07-29T02:58:14;2.60;;;2.40;;
3959;SDS011;1994;48.640;8.894;2023-07-29T03:00:39;2.87;;;2.50;;
3959;SDS011;1994;48.640;8.894;2023-07-29T03:03:07;4.77;;;2.13;;
3959;SDS011;1994;48.640;8.894;2023-07-29T03:05:33;3.03;;;1.90;;
3959;SDS011;1994;48.640;8.894;2023-07-29T03:07:59;4.13;;;2.53;;
3959;SDS011;1994;48.640;8.894;2023-07-29T03:10:25;3.20;;;2.50;;
3959;SDS011;1994;48.640;8.894;2023-07-29T03:12:51;2.87;;;2.67;;
3959;SDS011;1994;48.640;8.894;2023-07-29T03:15:19;3.67;;;2.20;;
3959;SDS011;1994;48.640;8.894;2023-07-29T03:17:48;2.83;;;2.43;;
3959;SDS011;1994;48.640;8.894;2023-07-29T03:20:14;3.13;;;2.93;;
3959;SDS011;1994;48.640;8.894;2023-07-29T03:22:40;2.70;;;2.20;;
3959;SDS011;1994;48.640;8.894;2023-07-29T03:25:05;2.93;;;2.10;;
3959;SDS011;1994;48.640;8.894;2023-07-29T03:27:31;6.17;;;2.60;;
3959;SDS011;1994;48.640;8.894;2023-07-29T03:29:58;7.70;;;2.30;;
3959;SDS011;1994;48.640;8.894;2023-07-29T03:32:24;3.43;;;2.10;;
3959;SDS011;1994;48.640;8.894;2023-07-29T03:34:49;2.43;;;2.23;;
3959;SDS011;1994;48.640;8.894;2023-07-29T03:37:15;2.03;;;1.83;;
3959;SDS011;1994;48.640;8.894;2023-07-29T03:39:41;2.50;;;2.30;;
3959;SDS011;1994;48.640;8.894;2023-07-29T03:42:07;2.57;;;2.07;;
3959;SDS011;1994;48.640;8.894;2023-07-29T03:44:33;8.60;;;2.70;;
3959;SDS011;1994;48.640;8.894;2023-07-29T03:47:00;2.63;;;2.30;;
3959;SDS011;1994;48.640;8.894;2023-07-29T03:49:26;2.47;;;2.27;;
3959;SDS011;1994;48.640;8.894;2023-07-29T03:51:51;2.23;;;2.03;;
3959;SDS011;1994;48.640;8.894;2023-07-29T03:54:17;3.43;;;2.30;;
3959;SDS011;1994;48.640;8.894;2023-07-29T03:56:43;2.50;;;1.93;;
3959;SDS011;1994;48.640;8.894;2023-07-29T03:59:08;2.87;;;2.47;;
3959;SDS011;1994;48.640;8.894;2023-07-29T04:01:34;3.20;;;2.57;;
3959;SDS011;1994;48.640;8.894;2023-07-29T04:04:00;2.80;;;2.47;;
3959;SDS011;1994;48.640;8.894;2023-07-29T04:06:25;8.03;;;2.63;;
3959;SDS011;1994;48.640;8.894;2023-07-29T04:08:51;3.40;;;3.10;;
3959;SDS011;1994;48.640;8.894;2023-07-29T04:11:17;3.77;;;2.47;;
3959;SDS011;1994;48.640;8.894;2023-07-29T04:13:43;3.67;;;2.13;;
3959;SDS011;1994;48.640;8.894;2023-07-29T04:16:08;3.70;;;2.40;;
3959;SDS011;1994;48.640;8.894;2023-07-29T04:18:34;5.83;;;2.40;;
3959;SDS011;1994;48.640;8.894;2023-07-29T04:21:00;2.63;;;2.17;;
3959;SDS011;1994;48.640;8.894;2023-07-29T04:23:26;3.43;;;2.00;;
3959;SDS011;1994;48.640;8.894;2023-07-29T04:25:52;3.93;;;2.50;;
3959;SDS011;1994;48.640;8.894;2023-07-29T04:28:18;4.90;;;2.67;;
3959;SDS011;1994;48.640;8.894;2023-07-29T04:30:43;2.50;;;2.30;;
3959;SDS011;1994;48.640;8.894;2023-07-29T04:33:09;5.93;;;2.93;;
3959;SDS011;1994;48.640;8.894;2023-07-29T04:35:35;3.30;;;2.30;;
3959;SDS011;1994;48.640;8.894;2023-07-29T04:38:00;2.87;;;2.67;;
3959;SDS011;1994;48.640;8.894;2023-07-29T04:40:26;4.90;;;2.67;;
3959;SDS011;1994;48.640;8.894;2023-07-29T04:42:52;6.67;;;2.30;;
3959;SDS011;1994;48.640;8.894;2023-07-29T04:45:17;2.67;;;2.47;;
3959;SDS011;1994;48.640;8.894;2023-07-29T04:47:43;3.43;;;2.90;;
3959;SDS011;1994;48.640;8.894;2023-07-29T04:50:09;3.43;;;2.80;;
3959;SDS011;1994;48.640;8.894;2023-07-29T04:52:35;2.80;;;2.60;;
3959;SDS011;1994;48.640;8.894;2023-07-29T04:55:00;2.30;;;2.07;;
3959;SDS011;1994;48.640;8.894;2023-07-29T04:57:26;2.50;;;2.30;;
3959;SDS011;1994;48.640;8.894;2023-07-29T04:59:52;2.43;;;2.23;;
3959;SDS011;1994;48.640;8.894;2023-07-29T05:02:17;2.90;;;1.97;;
3959;SDS011;1994;48.640;8.894;2023-07-29T05:04:43;5.40;;;2.53;;
3959;SDS011;1994;48.640;8.894;2023-07-29T05:07:09;2.43;;;1.60;;
3959;SDS011;1994;48.640;8.894;2023-07-29T05:09:34;1.90;;;1.80;;
3959;SDS011;1994;48.640;8.894;2023-07-29T05:12:00;2.10;;;2.00;;
3959;SDS011;1994;48.640;8.894;2023-07-29T05:14:26;2.00;;;1.80;;
3959;SDS011;1994;48.640;8.894;2023-07-29T05:16:52;3.93;;;1.97;;
3959;SDS011;1994;48.640;8.894;2023-07-29T05:19:17;2.87;;;1.70;;
3959;SDS011;1994;48.640;8.894;2023-07-29T05:21:43;1.90;;;1.60;;
3959;SDS011;1994;48.640;8.894;2023-07-29T05:24:09;1.90;;;1.80;;
3959;SDS011;1994;48.640;8.894;2023-07-29T05:26:34;2.07;;;1.50;;
3959;SDS011;1994;48.640;8.894;2023-07-29T05:29:00;2.10;;;2.00;;
3959;SDS011;1994;48.640;8.894;2023-07-29T05:31:26;1.50;;;1.40;;
3959;SDS011;1994;48.640;8.894;2023-07-29T05:33:52;1.70;;;1.60;;
3959;SDS011;1994;48.640;8.894;2023-07-29T05:36:18;2.70;;;2.10;;
3959;SDS011;1994;48.640;8.894;2023-07-29T05:38:44;1.70;;;1.60;;
3959;SDS011;1994;48.640;8.894;2023-07-29T05:41:09;2.00;;;1.40;;
3959;SDS011;1994;48.640;8.894;2023-07-29T05:43:35;2.17;;;1.97;;
3959;SDS011;1994;48.640;8.894;2023-07-29T05:46:02;1.70;;;1.60;;
3959;SDS011;1994;48.640;8.894;2023-07-29T05:48:27;5.47;;;1.70;;
3959;SDS011;1994;48.640;8.894;2023-07-29T05:50:53;1.70;;;1.60;;
3959;SDS011;1994;48.640;8.894;2023-07-29T05:53:19;1.83;;;1.73;;
3959;SDS011;1994;48.640;8.894;2023-07-29T05:55:44;7.80;;;1.60;;
3959;SDS011;1994;48.640;8.894;2023-07-29T05:58:10;4.03;;;1.90;;
3959;SDS011;1994;48.640;8.894;2023-07-29T06:00:36;2.10;;;2.00;;
3959;SDS011;1994;48.640;8.894;2023-07-29T06:03:02;2.30;;;2.20;;
3959;SDS011;1994;48.640;8.894;2023-07-29T06:05:27;1.80;;;1.70;;
3959;SDS011;1994;48.640;8.894;2023-07-29T06:07:53;3.57;;;1.80;;
3959;SDS011;1994;48.640;8.894;2023-07-29T06:10:19;2.10;;;1.50;;
3959;SDS011;1994;48.640;8.894;2023-07-29T06:12:45;2.30;;;2.10;;
3959;SDS011;1994;48.640;8.894;2023-07-29T06:15:11;1.70;;;1.60;;
3959;SDS011;1994;48.640;8.894;2023-07-29T06:17:37;2.27;;;1.87;;
3959;SDS011;1994;48.640;8.894;2023-07-29T06:20:04;2.47;;;1.67;;
3959;SDS011;1994;48.640;8.894;2023-07-29T06:22:30;2.53;;;1.60;;
3959;SDS011;1994;48.640;8.894;2023-07-29T06:24:56;1.50;;;1.40;;
3959;SDS011;1994;48.640;8.894;2023-07-29T06:27:22;7.17;;;1.50;;
3959;SDS011;1994;48.640;8.894;2023-07-29T06:29:50;2.00;;;1.80;;
3959;SDS011;1994;48.640;8.894;2023-07-29T06:32:16;1.70;;;1.60;;
3959;SDS011;1994;48.640;8.894;2023-07-29T06:34:41;2.07;;;1.60;;
3959;SDS011;1994;48.640;8.894;2023-07-29T06:37:07;2.07;;;1.77;;
3959;SDS011;1994;48.640;8.894;2023-07-29T06:39:33;3.80;;;2.20;;
3959;SDS011;1994;48.640;8.894;2023-07-29T06:41:58;7.30;;;2.47;;
3959;SDS011;1994;48.640;8.894;2023-07-29T06:44:24;2.23;;;1.33;;
3959;SDS011;1994;48.640;8.894;2023-07-29T06:46:50;1.83;;;1.70;;
3959;SDS011;1994;48.640;8.894;2023-07-29T06:49:15;1.87;;;1.30;;
3959;SDS011;1994;48.640;8.894;2023-07-29T06:51:41;1.67;;;1.57;;
3959;SDS011;1994;48.640;8.894;2023-07-29T06:54:07;1.70;;;1.60;;
3959;SDS011;1994;48.640;8.894;2023-07-29T06:56:33;1.20;;;1.20;;
3959;SDS011;1994;48.640;8.894;2023-07-29T06:58:58;1.10;;;1.00;;
3959;SDS011;1994;48.640;8.894;2023-07-29T07:01:24;1.40;;;1.30;;
3959;SDS011;1994;48.640;8.894;2023-07-29T07:03:50;1.33;;;1.33;;
3959;SDS011;1994;48.640;8.894;2023-07-29T07:06:19;1.33;;;1.33;;
3959;SDS011;1994;48.640;8.894;2023-07-29T07:08:46;1.03;;;1.03;;
3959;SDS011;1994;48.640;8.894;2023-07-29T07:11:12;0.80;;;0.80;;
3959;SDS011;1994;48.640;8.894;2023-07-29T07:13:38;1.30;;;1.20;;
3959;SDS011;1994;48.640;8.894;2023-07-29T07:16:04;1.40;;;1.27;;
3959;SDS011;1994;48.640;8.894;2023-07-29T07:18:29;2.60;;;2.03;;
3959;SDS011;1994;48.640;8.894;2023-07-29T07:20:55;1.50;;;1.40;;
3959;SDS011;1994;48.640;8.894;2023-07-29T07:23:21;1.73;;;1.63;;
3959;SDS011;1994;48.640;8.894;2023-07-29T07:25:47;1.87;;;1.70;;
3959;SDS011;1994;48.640;8.894;2023-07-29T07:28:12;1.40;;;1.30;;
3959;SDS011;1994;48.640;8.894;2023-07-29T07:30:41;1.50;;;1.40;;
3959;SDS011;1994;48.640;8.894;2023-07-29T07:33:07;1.37;;;1.27;;
3959;SDS011;1994;48.640;8.894;2023-07-29T07:35:33;1.50;;;1.40;;
3959;SDS011;1994;48.640;8.894;2023-07-29T07:37:58;2.57;;;1.53;;
3959;SDS011;1994;48.640;8.894;2023-07-29T07:40:26;1.47;;;1.40;;
3959;SDS011;1994;48.640;8.894;2023-07-29T07:42:52;1.77;;;1.67;;
3959;SDS011;1994;48.640;8.894;2023-07-29T07:45:19;1.23;;;1.17;;
3959;SDS011;1994;48.640;8.894;2023-07-29T07:47:45;1.90;;;1.43;;
3959;SDS011;1994;48.640;8.894;2023-07-29T07:50:11;1.20;;;1.10;;
3959;SDS011;1994;48.640;8.894;2023-07-29T07:52:37;1.10;;;1.00;;
3959;SDS011;1994;48.640;8.894;2023-07-29T07:55:02;1.50;;;1.40;;
3959;SDS011;1994;48.640;8.894;2023-07-29T07:57:29;1.33;;;1.20;;
3959;SDS011;1994;48.640;8.894;2023-07-29T07:59:54;3.47;;;1.40;;
3959;SDS011;1994;48.640;8.894;2023-07-29T08:02:20;1.40;;;1.30;;
3959;SDS011;1994;48.640;8.894;2023-07-29T08:04:46;6.13;;;1.53;;
3959;SDS011;1994;48.640;8.894;2023-07-29T08:07:11;1.50;;;1.40;;
3959;SDS011;1994;48.640;8.894;2023-07-29T08:09:38;2.33;;;1.70;;
3959;SDS011;1994;48.640;8.894;2023-07-29T08:12:04;1.37;;;1.30;;
3959;SDS011;1994;48.640;8.894;2023-07-29T08:14:30;1.30;;;1.30;;
3959;SDS011;1994;48.640;8.894;2023-07-29T08:16:56;1.63;;;1.53;;
3959;SDS011;1994;48.640;8.894;2023-07-29T08:19:21;7.83;;;1.43;;
3959;SDS011;1994;48.640;8.894;2023-07-29T08:21:48;3.03;;;1.53;;
3959;SDS011;1994;48.640;8.894;2023-07-29T08:24:13;1.53;;;1.43;;
3959;SDS011;1994;48.640;8.894;2023-07-29T08:26:39;1.60;;;1.50;;
3959;SDS011;1994;48.640;8.894;2023-07-29T08:29:05;1.63;;;1.43;;
3959;SDS011;1994;48.640;8.894;2023-07-29T08:31:30;1.67;;;1.57;;
3959;SDS011;1994;48.640;8.894;2023-07-29T08:33:58;1.60;;;1.50;;
3959;SDS011;1994;48.640;8.894;2023-07-29T08:36:25;3.23;;;1.80;;
3959;SDS011;1994;48.640;8.894;2023-07-29T08:38:51;1.60;;;1.50;;
3959;SDS011;1994;48.640;8.894;2023-07-29T08:41:29;1.83;;;1.27;;
3959;SDS011;1994;48.640;8.894;2023-07-29T08:44:18;1.67;;;1.57;;
3959;SDS011;1994;48.640;8.894;2023-07-29T08:46:48;1.43;;;1.40;;
3959;SDS011;1994;48.640;8.894;2023-07-29T08:49:16;1.50;;;1.20;;
3959;SDS011;1994;48.640;8.894;2023-07-29T08:51:48;1.73;;;1.63;;
3959;SDS011;1994;48.640;8.894;2023-07-29T08:54:15;1.73;;;1.27;;
3959;SDS011;1994;48.640;8.894;2023-07-29T08:56:41;1.37;;;1.30;;
3959;SDS011;1994;48.640;8.894;2023-07-29T08:59:08;1.87;;;1.30;;
3959;SDS011;1994;48.640;8.894;2023-07-29T09:01:35;1.50;;;1.43;;
3959;SDS011;1994;48.640;8.894;2023-07-29T09:04:06;1.20;;;1.10;;
3959;SDS011;1994;48.640;8.894;2023-07-29T09:06:32;1.30;;;1.30;;
3959;SDS011;1994;48.640;8.894;2023-07-29T09:08:58;1.93;;;1.73;;
3959;SDS011;1994;48.640;8.894;2023-07-29T09:11:26;1.40;;;1.30;;
3959;SDS011;1994;48.640;8.894;2023-07-29T09:13:53;3.37;;;1.20;;
3959;SDS011;1994;48.640;8.894;2023-07-29T09:16:19;1.90;;;1.20;;
3959;SDS011;1994;48.640;8.894;2023-07-29T09:18:49;1.30;;;1.20;;
3959;SDS011;1994;48.640;8.894;2023-07-29T09:21:23;1.50;;;1.40;;
3959;SDS011;1994;48.640;8.894;2023-07-29T09:23:53;1.60;;;1.40;;
3959;SDS011;1994;48.640;8.894;2023-07-29T09:26:26;1.40;;;1.30;;
3959;SDS011;1994;48.640;8.894;2023-07-29T09:28:56;2.00;;;1.87;;
3959;SDS011;1994;48.640;8.894;2023-07-29T09:31:24;1.47;;;1.37;;
3959;SDS011;1994;48.640;8.894;2023-07-29T09:33:58;2.20;;;1.47;;
3959;SDS011;1994;48.640;8.894;2023-07-29T09:36:26;1.80;;;1.70;;
3959;SDS011;1994;48.640;8.894;2023-07-29T09:38:53;1.40;;;1.30;;
3959;SDS011;1994;48.640;8.894;2023-07-29T09:41:21;1.33;;;1.30;;
3959;SDS011;1994;48.640;8.894;2023-07-29T09:43:51;1.40;;;1.27;;
3959;SDS011;1994;48.640;8.894;2023-07-29T09:46:23;2.00;;;1.90;;
3959;SDS011;1994;48.640;8.894;2023-07-29T09:48:53;6.70;;;1.60;;
3959;SDS011;1994;48.640;8.894;2023-07-29T09:51:20;2.10;;;1.70;;
3959;SDS011;1994;48.640;8.894;2023-07-29T09:53:47;1.50;;;1.40;;
3959;SDS011;1994;48.640;8.894;2023-07-29T09:56:15;1.60;;;1.50;;
3959;SDS011;1994;48.640;8.894;2023-07-29T09:58:42;2.40;;;1.83;;
3959;SDS011;1994;48.640;8.894;2023-07-29T10:01:12;5.10;;;2.17;;
3959;SDS011;1994;48.640;8.894;2023-07-29T10:03:39;4.93;;;1.27;;
3959;SDS011;1994;48.640;8.894;2023-07-29T10:06:06;1.50;;;1.40;;
3959;SDS011;1994;48.640;8.894;2023-07-29T10:08:32;1.87;;;1.77;;
3959;SDS011;1994;48.640;8.894;2023-07-29T10:11:05;1.50;;;1.40;;
3959;SDS011;1994;48.640;8.894;2023-07-29T10:13:32;1.60;;;1.50;;
3959;SDS011;1994;48.640;8.894;2023-07-29T10:15:59;3.87;;;1.33;;
3959;SDS011;1994;48.640;8.894;2023-07-29T10:18:28;1.63;;;1.53;;
3959;SDS011;1994;48.640;8.894;2023-07-29T10:20:56;1.70;;;1.60;;
3959;SDS011;1994;48.640;8.894;2023-07-29T10:23:25;1.50;;;1.50;;
3959;SDS011;1994;48.640;8.894;2023-07-29T10:25:57;2.77;;;1.60;;
3959;SDS011;1994;48.640;8.894;2023-07-29T10:28:29;1.90;;;1.80;;
3959;SDS011;1994;48.640;8.894;2023-07-29T10:30:57;3.83;;;1.30;;
3959;SDS011;1994;48.640;8.894;2023-07-29T10:33:24;1.20;;;1.20;;
3959;SDS011;1994;48.640;8.894;2023-07-29T10:35:51;1.73;;;1.63;;
3959;SDS011;1994;48.640;8.894;2023-07-29T10:38:19;1.70;;;1.60;;
3959;SDS011;1994;48.640;8.894;2023-07-29T10:40:53;1.47;;;1.40;;
3959;SDS011;1994;48.640;8.894;2023-07-29T10:43:25;1.73;;;1.60;;
3959;SDS011;1994;48.640;8.894;2023-07-29T10:45:55;4.00;;;1.90;;
3959;SDS011;1994;48.640;8.894;2023-07-29T10:53:55;1.37;;;1.37;;
3959;SDS011;1994;48.640;8.894;2023-07-29T10:59:02;1.47;;;1.37;;
3959;SDS011;1994;48.640;8.894;2023-07-29T11:01:37;1.90;;;1.80;;
3959;SDS011;1994;48.640;8.894;2023-07-29T11:09:39;1.60;;;1.50;;
3959;SDS011;1994;48.640;8.894;2023-07-29T11:15:03;1.80;;;1.70;;
3959;SDS011;1994;48.640;8.894;2023-07-29T11:20:12;2.07;;;1.87;;
3959;SDS011;1994;48.640;8.894;2023-07-29T11:22:39;1.70;;;1.60;;
3959;SDS011;1994;48.640;8.894;2023-07-29T11:25:09;1.50;;;1.40;;
3959;SDS011;1994;48.640;8.894;2023-07-29T11:27:38;1.53;;;1.43;;
3959;SDS011;1994;48.640;8.894;2023-07-29T11:30:05;1.53;;;1.43;;
3959;SDS011;1994;48.640;8.894;2023-07-29T11:32:38;1.57;;;1.43;;
3959;SDS011;1994;48.640;8.894;2023-07-29T11:35:06;1.73;;;1.63;;
3959;SDS011;1994;48.640;8.894;2023-07-29T11:37:41;1.77;;;1.67;;
3959;SDS011;1994;48.640;8.894;2023-07-29T11:40:12;1.63;;;1.53;;
3959;SDS011;1994;48.640;8.894;2023-07-29T11:42:48;2.03;;;1.70;;
3959;SDS011;1994;48.640;8.894;2023-07-29T11:45:16;1.80;;;1.70;;
3959;SDS011;1994;48.640;8.894;2023-07-29T11:47:43;1.60;;;1.50;;
3959;SDS011;1994;48.640;8.894;2023-07-29T11:50:10;1.43;;;1.33;;
3959;SDS011;1994;48.640;8.894;2023-07-29T11:52:40;2.10;;;1.90;;
3959;SDS011;1994;48.640;8.894;2023-07-29T11:55:11;1.50;;;1.40;;
3959;SDS011;1994;48.640;8.894;2023-07-29T11:57:39;1.70;;;1.60;;
3959;SDS011;1994;48.640;8.894;2023-07-29T12:00:07;1.37;;;1.27;;
3959;SDS011;1994;48.640;8.894;2023-07-29T12:02:42;1.53;;;1.43;;
3959;SDS011;1994;48.640;8.894;2023-07-29T12:05:10;5.27;;;1.60;;
3959;SDS011;1994;48.640;8.894;2023-07-29T12:07:40;1.90;;;1.80;;
3959;SDS011;1994;48.640;8.894;2023-07-29T12:10:09;2.07;;;1.93;;
3959;SDS011;1994;48.640;8.894;2023-07-29T12:12:45;1.70;;;1.60;;
3959;SDS011;1994;48.640;8.894;2023-07-29T12:15:25;1.87;;;1.67;;
3959;SDS011;1994;48.640;8.894;2023-07-29T12:17:53;1.70;;;1.60;;
3959;SDS011;1994;48.640;8.894;2023-07-29T12:20:24;1.57;;;1.47;;
3959;SDS011;1994;48.640;8.894;2023-07-29T12:22:58;1.80;;;1.70;;
3959;SDS011;1994;48.640;8.894;2023-07-29T12:25:30;2.30;;;1.57;;
3959;SDS011;1994;48.640;8.894;2023-07-29T12:27:56;1.63;;;1.53;;
3959;SDS011;1994;48.640;8.894;2023-07-29T12:30:27;2.97;;;1.67;;
3959;SDS011;1994;48.640;8.894;2023-07-29T12:32:53;4.20;;;1.57;;
3959;SDS011;1994;48.640;8.894;2023-07-29T12:35:18;1.80;;;1.70;;
3959;SDS011;1994;48.640;8.894;2023-07-29T12:37:44;3.53;;;1.60;;
3959;SDS011;1994;48.640;8.894;2023-07-29T12:40:23;8.80;;;1.53;;
3959;SDS011;1994;48.640;8.894;2023-07-29T12:42:50;1.57;;;1.47;;
3959;SDS011;1994;48.640;8.894;2023-07-29T12:45:17;1.80;;;1.70;;
3959;SDS011;1994;48.640;8.894;2023-07-29T12:47:43;1.17;;;1.17;;
3959;SDS011;1994;48.640;8.894;2023-07-29T12:50:09;1.87;;;1.70;;
3959;SDS011;1994;48.640;8.894;2023-07-29T12:52:35;1.50;;;1.40;;
3959;SDS011;1994;48.640;8.894;2023-07-29T12:55:01;1.53;;;1.43;;
3959;SDS011;1994;48.640;8.894;2023-07-29T12:57:27;2.83;;;1.40;;
3959;SDS011;1994;48.640;8.894;2023-07-29T12:59:52;1.50;;;1.40;;
3959;SDS011;1994;48.640;8.894;2023-07-29T13:02:18;1.87;;;1.77;;
3959;SDS011;1994;48.640;8.894;2023-07-29T13:04:44;1.17;;;1.17;;
3959;SDS011;1994;48.640;8.894;2023-07-29T13:07:10;1.83;;;1.73;;
3959;SDS011;1994;48.640;8.894;2023-07-29T13:09:35;1.73;;;1.63;;
3959;SDS011;1994;48.640;8.894;2023-07-29T13:12:01;1.50;;;1.40;;
3959;SDS011;1994;48.640;8.894;2023-07-29T13:14:27;1.47;;;1.37;;
3959;SDS011;1994;48.640;8.894;2023-07-29T13:16:53;2.33;;;2.23;;
3959;SDS011;1994;48.640;8.894;2023-07-29T13:19:18;3.33;;;2.00;;
3959;SDS011;1994;48.640;8.894;2023-07-29T13:21:44;1.90;;;1.80;;
3959;SDS011;1994;48.640;8.894;2023-07-29T13:24:10;1.53;;;1.43;;
3959;SDS011;1994;48.640;8.894;2023-07-29T13:26:35;3.90;;;1.67;;
3959;SDS011;1994;48.640;8.894;2023-07-29T13:29:01;1.30;;;1.30;;
3959;SDS011;1994;48.640;8.894;2023-07-29T13:31:29;1.53;;;1.47;;
3959;SDS011;1994;48.640;8.894;2023-07-29T13:33:55;1.80;;;1.70;;
3959;SDS011;1994;48.640;8.894;2023-07-29T13:36:21;1.83;;;1.73;;
3959;SDS011;1994;48.640;8.894;2023-07-29T13:38:47;1.60;;;1.50;;
3959;SDS011;1994;48.640;8.894;2023-07-29T13:41:12;1.40;;;1.30;;
3959;SDS011;1994;48.640;8.894;2023-07-29T13:43:38;1.50;;;1.40;;
3959;SDS011;1994;48.640;8.894;2023-07-29T13:46:04;1.40;;;1.30;;
3959;SDS011;1994;48.640;8.894;2023-07-29T13:48:30;2.07;;;1.97;;
3959;SDS011;1994;48.640;8.894;2023-07-29T13:50:58;2.33;;;1.50;;
3959;SDS011;1994;48.640;8.894;2023-07-29T13:53:23;2.87;;;1.67;;
3959;SDS011;1994;48.640;8.894;2023-07-29T13:55:50;1.20;;;1.20;;
3959;SDS011;1994;48.640;8.894;2023-07-29T13:58:16;2.30;;;2.03;;
3959;SDS011;1994;48.640;8.894;2023-07-29T14:00:42;1.67;;;1.57;;
3959;SDS011;1994;48.640;8.894;2023-07-29T14:03:08;1.60;;;1.50;;
3959;SDS011;1994;48.640;8.894;2023-07-29T14:05:33;1.60;;;1.50;;
3959;SDS011;1994;48.640;8.894;2023-07-29T14:08:00;2.17;;;1.70;;
3959;SDS011;1994;48.640;8.894;2023-07-29T14:10:25;1.60;;;1.50;;
3959;SDS011;1994;48.640;8.894;2023-07-29T14:12:51;1.70;;;1.60;;
3959;SDS011;1994;48.640;8.894;2023-07-29T14:15:17;2.20;;;2.10;;
3959;SDS011;1994;48.640;8.894;2023-07-29T14:17:43;1.47;;;1.37;;
3959;SDS011;1994;48.640;8.894;2023-07-29T14:20:09;1.63;;;1.53;;
3959;SDS011;1994;48.640;8.894;2023-07-29T14:22:35;2.00;;;1.90;;
3959;SDS011;1994;48.640;8.894;2023-07-29T14:25:01;1.87;;;1.77;;
3959;SDS011;1994;48.640;8.894;2023-07-29T14:27:27;1.80;;;1.70;;
3959;SDS011;1994;48.640;8.894;2023-07-29T14:29:53;1.60;;;1.50;;
3959;SDS011;1994;48.640;8.894;2023-07-29T14:32:18;3.33;;;1.87;;
3959;SDS011;1994;48.640;8.894;2023-07-29T14:34:44;1.60;;;1.50;;
3959;SDS011;1994;48.640;8.894;2023-07-29T14:37:10;1.53;;;1.43;;
3959;SDS011;1994;48.640;8.894;2023-07-29T14:39:35;1.57;;;1.47;;
3959;SDS011;1994;48.640;8.894;2023-07-29T14:42:01;1.90;;;1.70;;
3959;SDS011;1994;48.640;8.894;2023-07-29T14:44:27;1.70;;;1.60;;
3959;SDS011;1994;48.640;8.894;2023-07-29T14:46:53;1.80;;;1.70;;
3959;SDS011;1994;48.640;8.894;2023-07-29T14:49:19;1.97;;;1.80;;
3959;SDS011;1994;48.640;8.894;2023-07-29T14:51:45;1.77;;;1.67;;
3959;SDS011;1994;48.640;8.894;2023-07-29T14:54:11;1.80;;;1.70;;
3959;SDS011;1994;48.640;8.894;2023-07-29T14:56:36;2.73;;;1.80;;
3959;SDS011;1994;48.640;8.894;2023-07-29T14:59:02;1.40;;;1.30;;
3959;SDS011;1994;48.640;8.894;2023-07-29T15:01:28;3.03;;;1.23;;
3959;SDS011;1994;48.640;8.894;2023-07-29T15:03:54;1.63;;;1.53;;
3959;SDS011;1994;48.640;8.894;2023-07-29T15:06:19;1.67;;;1.57;;
3959;SDS011;1994;48.640;8.894;2023-07-29T15:08:45;1.33;;;1.27;;
3959;SDS011;1994;48.640;8.894;2023-07-29T15:11:11;1.50;;;1.40;;
3959;SDS011;1994;48.640;8.894;2023-07-29T15:13:36;2.07;;;1.67;;
3959;SDS011;1994;48.640;8.894;2023-07-29T15:16:02;2.77;;;1.80;;
3959;SDS011;1994;48.640;8.894;2023-07-29T15:18:28;1.90;;;1.80;;
3959;SDS011;1994;48.640;8.894;2023-07-29T15:20:55;2.27;;;1.70;;
3959;SDS011;1994;48.640;8.894;2023-07-29T15:23:22;1.37;;;1.27;;
3959;SDS011;1994;48.640;8.894;2023-07-29T15:25:48;1.50;;;1.40;;
3959;SDS011;1994;48.640;8.894;2023-07-29T15:28:14;1.93;;;1.83;;
3959;SDS011;1994;48.640;8.894;2023-07-29T15:30:40;2.13;;;2.00;;
3959;SDS011;1994;48.640;8.894;2023-07-29T15:33:05;1.40;;;1.40;;
3959;SDS011;1994;48.640;8.894;2023-07-29T15:35:34;1.60;;;1.50;;